Morejarl — LLWD — position and weather

sailwx.info

Track history (hours):
 
Tides and Currents Weather Stations Pressure Air Temp Water Temp Dewpoint Dewpoint Depression Visibility Wind Speed Wind Dir Waves Ship Positions

Morejarl

Last reported at 2014-Oct-01 15:33 UTC. Time now 2014-Oct-01 16:15 UTC.
Position N 63°41' E 009°40'.

Length 35 m; draft 1.9 m.

Type: High speed craft. MMSI: 258561000.

Date/timePositionNaut miles runAvg speedWind from/ knotsBaromVisibWave heightAir tempDewpointWater temp
2014-Oct-01 15:33N 63°41' E 009°40'2423.9
2014-Oct-01 14:33N 63°26' E 010°22'2 2.4
2014-Oct-01 13:33N 63°27' E 010°18'2221.6
2014-Oct-01 12:33N 63°41' E 009°40'5424.3
2014-Oct-01 10:21N 63°13' E 007°59'4516.0
2014-Oct-01 07:31N 63°35' E 009°26'1616.5
2014-Oct-01 06:34N 63°29' E 009°59'1211.5
2014-Oct-01 05:33N 63°26' E 010°24'1817.7
2014-Oct-01 04:34N 63°34' E 009°49'8 7.7
2014-Oct-01 03:33N 63°41' E 009°40'0 0.0
2014-Oct-01 02:32N 63°41' E 009°40'0 0.0
2014-Oct-01 01:29N 63°41' E 009°40'0 0.0
2014-Oct-01 00:32N 63°41' E 009°40'0 0.0
2014-Sep-30 23:33N 63°41' E 009°40'0 0.0
2014-Sep-30 22:21N 63°41' E 009°40'12 4.2
2014-Sep-30 19:33N 63°30' E 009°50'1615.7
2014-Sep-30 18:33N 63°26' E 010°24'1514.5
2014-Sep-30 17:33N 63°30' E 009°52'13 2.1
2014-Sep-30 11:29N 63°35' E 009°26'1819.9
2014-Sep-30 10:34N 63°28' E 010°04'9 9.3
2014-Sep-30 09:33N 63°26' E 010°24'2423.8
2014-Sep-30 08:32N 63°41' E 009°40'0 0.0
2014-Sep-29 15:34N 63°41' E 009°40'2423.7
2014-Sep-29 14:33N 63°27' E 010°22'1 0.6
2014-Sep-29 13:34N 63°26' E 010°23'9 1.3
2014-Sep-29 06:33N 63°29' E 010°04'9 9.1
2014-Sep-29 05:34N 63°26' E 010°24'1 0.2
2014-Sep-28 21:34N 63°27' E 010°21'1 0.2
2014-Sep-28 18:34N 63°26' E 010°22'7 6.8
2014-Sep-28 17:34N 63°28' E 010°08'2 0.3
2014-Sep-28 10:31N 63°29' E 010°03'1010.1
2014-Sep-28 09:34N 63°26' E 010°24'1 0.0
2014-Sep-27 19:34N 63°26' E 010°23'1 0.5
2014-Sep-27 18:34N 63°26' E 010°24'0 0.0
2014-Sep-27 17:34N 63°26' E 010°24'0 0.0
2014-Sep-27 16:34N 63°26' E 010°24'0 0.0
2014-Sep-27 15:34N 63°26' E 010°24'0 0.0
2014-Sep-27 14:34N 63°26' E 010°24'1 0.9
2014-Sep-27 13:34N 63°27' E 010°22'1 0.9
2014-Sep-27 12:34N 63°26' E 010°24'0 0.0
2014-Sep-27 11:34N 63°26' E 010°24'0 0.0
2014-Sep-27 10:34N 63°26' E 010°24'0 0.0
2014-Sep-27 09:34N 63°26' E 010°24'0 0.0
2014-Sep-27 08:34N 63°26' E 010°24'0 0.0
2014-Sep-27 07:34N 63°26' E 010°24'8 0.6
2014-Sep-26 18:33N 63°28' E 010°06'8 2.0
2014-Sep-26 14:34N 63°26' E 010°23'3 2.6
2014-Sep-26 13:34N 63°27' E 010°18'0 0.0
2014-Sep-26 07:11N 63°27' E 010°19'710.6
2014-Sep-26 06:30N 63°29' E 010°03'1010.2
2014-Sep-26 05:34N 63°26' E 010°24'8 0.8
2014-Sep-25 19:24N 63°29' E 010°07'8 9.3
2014-Sep-25 18:34N 63°26' E 010°24'8 1.0
2014-Sep-25 10:33N 63°29' E 010°06'8 8.4
2014-Sep-25 09:34N 63°26' E 010°24'6615.2
2014-Sep-25 05:14N 63°13' E 007°60'65 4.4
2014-Sep-24 14:34N 63°27' E 010°21'1 0.7
2014-Sep-24 13:34N 63°27' E 010°20'8 1.1
2014-Sep-24 06:32N 63°29' E 010°03'1010.0
2014-Sep-24 05:34N 63°26' E 010°24'10 1.0
2014-Sep-23 19:22N 63°29' E 010°02'1012.5
2014-Sep-23 18:34N 63°26' E 010°24'9 1.1
2014-Sep-23 10:33N 63°29' E 010°05'9 8.6
2014-Sep-23 09:34N 63°26' E 010°24'0 0.0
2014-Sep-22 14:34N 63°26' E 010°23'0 0.4
2014-Sep-22 13:34N 63°26' E 010°24'7321.4
2014-Sep-22 10:08N 63°07' E 007°46'6518.0
2014-Sep-22 06:31N 63°29' E 010°03'1010.3
2014-Sep-22 05:34N 63°26' E 010°24'1 0.2
2014-Sep-21 21:34N 63°27' E 010°21'0 0.1
2014-Sep-21 18:34N 63°27' E 010°22'6 6.5
2014-Sep-21 17:34N 63°28' E 010°08'  
Track history (hours):
 
Tides and Currents Weather Stations Pressure Air Temp Water Temp Dewpoint Dewpoint Depression Visibility Wind Speed Wind Dir Waves Ship Positions

Morejarl

Last reported at 2014-Oct-01 15:33 UTC. Time now 2014-Oct-01 16:15 UTC.
Position N 63°41' E 009°40'.

Length 35 m; draft 1.9 m.

Type: High speed craft. MMSI: 258561000.

Date/timePositionNaut miles runAvg speedWind from/ knotsBaromVisibWave heightAir tempDewpointWater temp
2014-Oct-01 15:33N 63°41' E 009°40'2423.9
2014-Oct-01 14:33N 63°26' E 010°22'2 2.4
2014-Oct-01 13:33N 63°27' E 010°18'2221.6
2014-Oct-01 12:33N 63°41' E 009°40'5424.3
2014-Oct-01 10:21N 63°13' E 007°59'4516.0
2014-Oct-01 07:31N 63°35' E 009°26'1616.5
2014-Oct-01 06:34N 63°29' E 009°59'1211.5
2014-Oct-01 05:33N 63°26' E 010°24'1817.7
2014-Oct-01 04:34N 63°34' E 009°49'8 7.7
2014-Oct-01 03:33N 63°41' E 009°40'0 0.0
2014-Oct-01 02:32N 63°41' E 009°40'0 0.0
2014-Oct-01 01:29N 63°41' E 009°40'0 0.0
2014-Oct-01 00:32N 63°41' E 009°40'0 0.0
2014-Sep-30 23:33N 63°41' E 009°40'0 0.0
2014-Sep-30 22:21N 63°41' E 009°40'12 4.2
2014-Sep-30 19:33N 63°30' E 009°50'1615.7
2014-Sep-30 18:33N 63°26' E 010°24'1514.5
2014-Sep-30 17:33N 63°30' E 009°52'13 2.1
2014-Sep-30 11:29N 63°35' E 009°26'1819.9
2014-Sep-30 10:34N 63°28' E 010°04'9 9.3
2014-Sep-30 09:33N 63°26' E 010°24'2423.8
2014-Sep-30 08:32N 63°41' E 009°40'0 0.0
2014-Sep-29 15:34N 63°41' E 009°40'2423.7
2014-Sep-29 14:33N 63°27' E 010°22'1 0.6
2014-Sep-29 13:34N 63°26' E 010°23'9 1.3
2014-Sep-29 06:33N 63°29' E 010°04'9 9.1
2014-Sep-29 05:34N 63°26' E 010°24'1 0.2
2014-Sep-28 21:34N 63°27' E 010°21'1 0.2
2014-Sep-28 18:34N 63°26' E 010°22'7 6.8
2014-Sep-28 17:34N 63°28' E 010°08'2 0.3
2014-Sep-28 10:31N 63°29' E 010°03'1010.1
2014-Sep-28 09:34N 63°26' E 010°24'1 0.0
2014-Sep-27 19:34N 63°26' E 010°23'1 0.5
2014-Sep-27 18:34N 63°26' E 010°24'0 0.0
2014-Sep-27 17:34N 63°26' E 010°24'0 0.0
2014-Sep-27 16:34N 63°26' E 010°24'0 0.0
2014-Sep-27 15:34N 63°26' E 010°24'0 0.0
2014-Sep-27 14:34N 63°26' E 010°24'1 0.9
2014-Sep-27 13:34N 63°27' E 010°22'1 0.9
2014-Sep-27 12:34N 63°26' E 010°24'0 0.0
2014-Sep-27 11:34N 63°26' E 010°24'0 0.0
2014-Sep-27 10:34N 63°26' E 010°24'0 0.0
2014-Sep-27 09:34N 63°26' E 010°24'0 0.0
2014-Sep-27 08:34N 63°26' E 010°24'0 0.0
2014-Sep-27 07:34N 63°26' E 010°24'8 0.6
2014-Sep-26 18:33N 63°28' E 010°06'8 2.0
2014-Sep-26 14:34N 63°26' E 010°23'3 2.6
2014-Sep-26 13:34N 63°27' E 010°18'0 0.0
2014-Sep-26 07:11N 63°27' E 010°19'710.6
2014-Sep-26 06:30N 63°29' E 010°03'1010.2
2014-Sep-26 05:34N 63°26' E 010°24'8 0.8
2014-Sep-25 19:24N 63°29' E 010°07'8 9.3
2014-Sep-25 18:34N 63°26' E 010°24'8 1.0
2014-Sep-25 10:33N 63°29' E 010°06'8 8.4
2014-Sep-25 09:34N 63°26' E 010°24'6615.2
2014-Sep-25 05:14N 63°13' E 007°60'65 4.4
2014-Sep-24 14:34N 63°27' E 010°21'1 0.7
2014-Sep-24 13:34N 63°27' E 010°20'8 1.1
2014-Sep-24 06:32N 63°29' E 010°03'1010.0
2014-Sep-24 05:34N 63°26' E 010°24'10 1.0
2014-Sep-23 19:22N 63°29' E 010°02'1012.5
2014-Sep-23 18:34N 63°26' E 010°24'9 1.1
2014-Sep-23 10:33N 63°29' E 010°05'9 8.6
2014-Sep-23 09:34N 63°26' E 010°24'0 0.0
2014-Sep-22 14:34N 63°26' E 010°23'0 0.4
2014-Sep-22 13:34N 63°26' E 010°24'7321.4
2014-Sep-22 10:08N 63°07' E 007°46'6518.0
2014-Sep-22 06:31N 63°29' E 010°03'1010.3
2014-Sep-22 05:34N 63°26' E 010°24'1 0.2
2014-Sep-21 21:34N 63°27' E 010°21'0 0.1
2014-Sep-21 18:34N 63°27' E 010°22'6 6.5
2014-Sep-21 17:34N 63°28' E 010°08'  

Dump ship's entire track history